createdAt,value
2019-02-18T00:00:44.418Z,101709.78
2019-02-18T00:03:14.941Z,101710.77
2019-02-18T00:05:45.475Z,101711.06
2019-02-18T00:08:16.111Z,101705.97
2019-02-18T00:10:46.633Z,101702.53
2019-02-18T00:13:17.371Z,101699.82
2019-02-18T00:15:49.491Z,101697.14
2019-02-18T00:18:20.031Z,101698.80
2019-02-18T00:20:50.597Z,101696.98
2019-02-18T00:23:21.126Z,101694.34
2019-02-18T00:25:51.660Z,101694.51
2019-02-18T00:28:22.196Z,101685.46
2019-02-18T00:30:52.718Z,101683.46
2019-02-18T00:33:23.249Z,101673.06
2019-02-18T00:35:53.778Z,101683.46
2019-02-18T00:38:24.211Z,101684.45
2019-02-18T00:40:54.747Z,101683.14
2019-02-18T00:43:25.173Z,101674.58
2019-02-18T00:45:55.706Z,101671.06
2019-02-18T00:48:26.238Z,101668.05
2019-02-18T00:50:56.769Z,101675.75
2019-02-18T00:53:27.297Z,101675.75
2019-02-18T00:55:57.707Z,101671.03
2019-02-18T00:58:28.147Z,101674.86
2019-02-18T01:00:58.682Z,101678.86
2019-02-18T01:03:29.110Z,101670.91
2019-02-18T01:05:59.529Z,101666.44
2019-02-18T01:08:29.964Z,101666.06
2019-02-18T01:11:00.466Z,101662.71
2019-02-18T01:13:30.925Z,101661.05
2019-02-18T01:16:01.350Z,101658.68
2019-02-18T01:18:31.878Z,101659.33
2019-02-18T01:21:04.053Z,101656.97
2019-02-18T01:23:36.218Z,101652.61
2019-02-18T01:26:08.186Z,101651.28
2019-02-18T01:28:40.120Z,101643.92
2019-02-18T01:31:12.111Z,101642.29
2019-02-18T01:33:44.078Z,101638.96
2019-02-18T01:36:16.146Z,101642.35
2019-02-18T01:38:46.983Z,101633.34
2019-02-18T01:41:17.572Z,101627.30
2019-02-18T01:43:48.049Z,101636.72
2019-02-18T01:46:19.693Z,101632.02
2019-02-18T01:48:50.124Z,101630.84
2019-02-18T01:51:20.559Z,101632.71
2019-02-18T01:53:50.977Z,101633.53
2019-02-18T01:56:21.411Z,101628.84
2019-02-18T01:58:51.841Z,101626.31
2019-02-18T02:01:22.260Z,101621.95
2019-02-18T02:03:52.664Z,101616.70
2019-02-18T02:06:23.226Z,101619.39
2019-02-18T02:08:53.658Z,101616.55
2019-02-18T02:11:24.097Z,101610.80
2019-02-18T02:13:54.511Z,101613.33
2019-02-18T02:16:24.943Z,101614.84
2019-02-18T02:18:55.397Z,101612.48
2019-02-18T02:21:25.852Z,101612.97
2019-02-18T02:23:56.325Z,101607.06
2019-02-18T02:26:26.733Z,101606.54
2019-02-18T02:28:57.177Z,101611.06
2019-02-18T02:31:27.609Z,101606.66
2019-02-18T02:33:58.075Z,101599.81
2019-02-18T02:36:28.600Z,101598.63
2019-02-18T02:38:59.106Z,101595.30
2019-02-18T02:41:29.522Z,101591.06
2019-02-18T02:43:59.958Z,101592.60
2019-02-18T02:46:30.387Z,101590.24
2019-02-18T02:49:00.796Z,101587.72
2019-02-18T02:51:31.238Z,101592.23
2019-02-18T02:54:01.673Z,101587.15
2019-02-18T02:56:32.092Z,101580.10
2019-02-18T02:59:02.533Z,101587.63
2019-02-18T03:01:32.962Z,101590.16
2019-02-18T03:04:03.489Z,101582.42
2019-02-18T03:06:33.898Z,101588.81
2019-02-18T03:12:05.494Z,101575.66
2019-02-18T03:14:35.916Z,101576.98
2019-02-18T03:17:06.344Z,101570.23
2019-02-18T03:19:36.744Z,101569.73
2019-02-18T03:22:07.197Z,101572.91
2019-02-18T03:24:37.628Z,101568.22
2019-02-18T03:27:08.060Z,101571.89
2019-02-18T03:29:58.106Z,101570.05
2019-02-18T03:32:28.948Z,101567.38
2019-02-18T03:35:00.641Z,101567.05
2019-02-18T03:37:31.583Z,101559.84
2019-02-18T03:40:02.019Z,101563.56
2019-02-18T03:42:32.638Z,101557.17
2019-02-18T03:45:03.169Z,101556.68
2019-02-18T03:47:33.602Z,101558.68
2019-02-18T03:50:04.441Z,101552.97
2019-02-18T03:52:34.843Z,101550.94
2019-02-18T03:55:08.861Z,101545.41
2019-02-18T03:57:39.314Z,101548.13
2019-02-18T04:00:12.333Z,101548.13
2019-02-18T04:02:42.835Z,101554.89
2019-02-18T04:05:13.366Z,101552.20
2019-02-18T04:07:43.893Z,101545.98
2019-02-18T04:10:14.426Z,101549.03
2019-02-18T04:12:44.848Z,101545.69
2019-02-18T04:15:17.079Z,101550.90
2019-02-18T04:17:47.554Z,101553.62
2019-02-18T04:20:17.973Z,101549.26
2019-02-18T04:22:48.506Z,101543.52
2019-02-18T04:25:18.935Z,101547.23
2019-02-18T04:27:49.462Z,101543.84
2019-02-18T04:30:19.901Z,101545.88
2019-02-18T04:32:50.429Z,101543.85
2019-02-18T04:35:20.847Z,101541.78
2019-02-18T04:37:51.281Z,101534.25
2019-02-18T04:40:21.714Z,101538.44
2019-02-18T04:42:52.131Z,101537.09
2019-02-18T04:45:22.565Z,101537.09
2019-02-18T04:47:52.996Z,101532.70
2019-02-18T04:50:23.624Z,101543.13
2019-02-18T04:52:54.069Z,101540.93
2019-02-18T04:55:24.588Z,101535.06
2019-02-18T04:57:55.120Z,101534.05
2019-02-18T05:00:25.540Z,101535.06
2019-02-18T05:02:55.973Z,101530.67
2019-02-18T05:05:26.402Z,101530.41
2019-02-18T05:07:56.799Z,101531.38
2019-02-18T05:10:27.257Z,101531.80
2019-02-18T05:12:57.688Z,101529.05
2019-02-18T05:15:28.091Z,101524.04
2019-02-18T05:17:58.547Z,101529.41
2019-02-18T05:20:28.975Z,101531.89
2019-02-18T05:22:59.393Z,101526.45
2019-02-18T05:25:29.830Z,101526.77
2019-02-18T05:28:00.358Z,101530.37
2019-02-18T05:30:30.747Z,101531.89
2019-02-18T05:33:01.236Z,101534.96
2019-02-18T05:35:31.740Z,101532.81
2019-02-18T05:38:02.177Z,101533.19
2019-02-18T05:40:32.610Z,101532.34
2019-02-18T05:43:03.146Z,101530.19
2019-02-18T05:45:33.542Z,101527.88
2019-02-18T05:48:03.992Z,101529.55
2019-02-18T05:50:35.446Z,101524.19
2019-02-18T05:53:05.879Z,101523.53
2019-02-18T05:55:36.294Z,101520.84
2019-02-18T05:58:06.734Z,101523.70
2019-02-18T06:00:37.116Z,101531.92
2019-02-18T06:03:07.690Z,101526.06
2019-02-18T06:05:38.224Z,101529.08
2019-02-18T06:08:08.727Z,101523.91
2019-02-18T06:10:39.148Z,101525.58
2019-02-18T06:13:09.552Z,101530.95
2019-02-18T06:15:39.997Z,101528.30
2019-02-18T06:18:10.457Z,101529.65
2019-02-18T06:20:40.987Z,101536.37
2019-02-18T06:23:11.418Z,101534.20
2019-02-18T06:25:41.948Z,101532.34
2019-02-18T06:28:12.480Z,101539.05
2019-02-18T06:30:42.920Z,101540.89
2019-02-18T06:33:13.445Z,101537.06
2019-02-18T06:35:43.862Z,101542.44
2019-02-18T06:38:14.511Z,101545.61
2019-02-18T06:40:45.034Z,101551.64
2019-02-18T06:43:15.564Z,101550.49
2019-02-18T06:45:51.825Z,101548.83
2019-02-18T06:48:23.962Z,101555.62
2019-02-18T06:50:54.530Z,101550.27
2019-02-18T06:53:24.943Z,101551.66
2019-02-18T06:55:55.349Z,101546.97
2019-02-18T06:58:27.466Z,101549.97
2019-02-18T07:01:02.236Z,101549.30
2019-02-18T07:03:37.253Z,101551.63
2019-02-18T07:06:09.384Z,101549.59
2019-02-18T07:08:50.703Z,101544.67
2019-02-18T07:11:22.833Z,101548.87
2019-02-18T07:13:53.363Z,101539.42
2019-02-18T07:16:23.763Z,101546.46
2019-02-18T07:18:54.215Z,101545.11
2019-02-18T07:21:24.645Z,101547.48
2019-02-18T07:23:55.080Z,101549.16
2019-02-18T07:26:25.468Z,101551.48
2019-02-18T07:28:55.877Z,101544.37
2019-02-18T07:31:26.280Z,101547.01
2019-02-18T07:33:56.786Z,101547.83
2019-02-18T07:36:27.214Z,101554.36
2019-02-18T07:38:57.625Z,101553.28
2019-02-18T07:41:28.177Z,101551.89
2019-02-18T07:43:58.714Z,101549.48
2019-02-18T07:46:29.127Z,101548.77
2019-02-18T07:48:59.584Z,101551.06
2019-02-18T07:51:29.993Z,101547.02
2019-02-18T07:54:00.494Z,101549.71
2019-02-18T07:56:31.051Z,101547.84
2019-02-18T07:59:01.583Z,101551.11
2019-02-18T08:01:32.085Z,101550.81
2019-02-18T08:04:02.483Z,101543.78
2019-02-18T08:06:32.965Z,101552.44
2019-02-18T08:09:05.239Z,101548.27
2019-02-18T08:11:35.687Z,101542.91
2019-02-18T08:14:07.485Z,101544.92
2019-02-18T08:16:38.018Z,101546.80
2019-02-18T08:19:08.523Z,101540.83
2019-02-18T08:21:38.929Z,101544.41
2019-02-18T08:24:10.336Z,101538.52
2019-02-18T08:26:40.816Z,101544.67
2019-02-18T08:29:11.283Z,101545.18
2019-02-18T08:31:41.814Z,101544.23
2019-02-18T08:34:12.218Z,101536.53
2019-02-18T08:36:42.621Z,101528.85
2019-02-18T08:39:13.006Z,101530.95
2019-02-18T08:41:43.532Z,101535.14
2019-02-18T08:44:14.181Z,101534.29
2019-02-18T08:46:44.693Z,101541.50
2019-02-18T08:49:15.096Z,101539.41
2019-02-18T08:51:45.575Z,101539.30
2019-02-18T08:54:17.042Z,101544.48
2019-02-18T08:56:47.574Z,101540.08
2019-02-18T08:59:19.494Z,101548.27
2019-02-18T09:01:50.037Z,101541.57
2019-02-18T09:04:20.441Z,101543.62
2019-02-18T09:06:50.854Z,101543.92
2019-02-18T09:09:21.416Z,101546.67
2019-02-18T09:11:51.837Z,101542.25
2019-02-18T09:14:22.368Z,101544.27
2019-02-18T09:16:52.899Z,101546.03
2019-02-18T09:19:23.333Z,101539.98
2019-02-18T09:21:55.397Z,101539.79
2019-02-18T09:24:27.463Z,101544.41
2019-02-18T09:26:57.857Z,101542.77
2019-02-18T09:29:28.319Z,101537.84
2019-02-18T09:31:58.849Z,101529.66
2019-02-18T09:34:29.255Z,101526.95
2019-02-18T09:36:59.661Z,101524.83
2019-02-18T09:39:31.510Z,101529.41
2019-02-18T09:42:02.152Z,101530.95
2019-02-18T09:44:32.663Z,101532.17
2019-02-18T09:47:03.098Z,101533.34
2019-02-18T09:49:33.586Z,101526.60
2019-02-18T09:52:03.994Z,101529.72
2019-02-18T09:54:34.481Z,101524.77
2019-02-18T09:57:04.883Z,101527.41
2019-02-18T09:59:35.622Z,101522.20
2019-02-18T10:02:06.062Z,101526.29
2019-02-18T10:04:36.486Z,101521.33
2019-02-18T10:07:07.063Z,101520.19
2019-02-18T10:09:37.458Z,101520.08
2019-02-18T10:12:17.755Z,101521.77
2019-02-18T10:14:40.087Z,101518.20
2019-02-18T10:17:10.492Z,101517.67
2019-02-18T10:19:42.995Z,101519.14
2019-02-18T10:22:13.260Z,101518.09
2019-02-18T10:24:50.643Z,101511.00
2019-02-18T10:27:16.735Z,101514.04
2019-02-18T10:29:47.133Z,101500.09
2019-02-18T10:32:17.628Z,101501.77
2019-02-18T10:34:48.028Z,101500.80
2019-02-18T10:37:18.433Z,101497.06
2019-02-18T10:39:48.850Z,101496.77
2019-02-18T10:42:19.346Z,101496.61
2019-02-18T10:44:49.777Z,101499.11
2019-02-18T10:47:20.618Z,101492.95
2019-02-18T10:49:51.035Z,101497.95
2019-02-18T10:52:22.604Z,101496.86
2019-02-18T10:54:53.047Z,101492.20
2019-02-18T10:57:23.550Z,101487.23
2019-02-18T10:59:54.497Z,101487.38
2019-02-18T11:02:24.919Z,101486.12
2019-02-18T11:04:55.454Z,101471.36
2019-02-18T11:07:26.186Z,101477.20
2019-02-18T11:09:56.588Z,101471.77
2019-02-18T11:12:27.040Z,101470.13
2019-02-18T11:14:57.439Z,101459.53
2019-02-18T11:17:27.904Z,101451.05
2019-02-18T11:19:58.333Z,101449.87
2019-02-18T11:22:28.725Z,101448.13
2019-02-18T11:24:59.187Z,101452.36
2019-02-18T11:27:29.719Z,101444.87
2019-02-18T11:30:00.335Z,101445.48
2019-02-18T11:32:30.880Z,101444.45
2019-02-18T11:35:01.319Z,101432.02
2019-02-18T11:37:33.558Z,101438.55
2019-02-18T11:40:06.548Z,101429.89
2019-02-18T11:42:37.617Z,101424.41
2019-02-18T11:45:10.953Z,101422.20
2019-02-18T11:47:41.441Z,101423.61
2019-02-18T11:50:13.433Z,101416.17
2019-02-18T11:52:43.873Z,101414.97
2019-02-18T11:55:14.777Z,101405.31
2019-02-18T11:57:45.610Z,101399.59
2019-02-18T12:00:17.119Z,101389.52
2019-02-18T12:02:47.987Z,101394.17
2019-02-18T12:05:18.385Z,101388.37
2019-02-18T12:07:48.964Z,101381.80
2019-02-18T12:10:19.359Z,101378.41
2019-02-18T12:12:49.811Z,101377.05
2019-02-18T12:15:21.364Z,101371.63
2019-02-18T12:17:52.004Z,101360.50
2019-02-18T12:20:23.754Z,101358.00
2019-02-18T12:22:54.226Z,101358.46
2019-02-18T12:25:25.008Z,101351.25
2019-02-18T12:27:56.891Z,101352.02
2019-02-18T12:30:28.368Z,101352.51
2019-02-18T12:32:58.875Z,101343.39
2019-02-18T12:35:31.546Z,101347.81
2019-02-18T12:38:01.473Z,101345.70
2019-02-18T12:40:31.895Z,101344.33
2019-02-18T12:43:02.302Z,101339.81
2019-02-18T12:45:32.761Z,101332.98
2019-02-18T12:48:03.175Z,101325.37
2019-02-18T12:50:33.574Z,101329.92
2019-02-18T12:53:04.545Z,101326.42
2019-02-18T12:55:36.209Z,101319.94
2019-02-18T12:58:06.835Z,101322.95
2019-02-18T13:00:37.237Z,101319.23
2019-02-18T13:03:07.700Z,101319.88
2019-02-18T13:05:38.232Z,101316.98
2019-02-18T13:08:08.956Z,101309.66
2019-02-18T13:10:39.488Z,101312.48
2019-02-18T13:13:10.027Z,101311.87
2019-02-18T13:15:40.425Z,101310.02
2019-02-18T13:18:10.839Z,101302.88
2019-02-18T13:20:41.268Z,101298.52
2019-02-18T13:23:12.142Z,101297.76
2019-02-18T13:25:47.486Z,101295.04
2019-02-18T13:28:14.848Z,101295.77
2019-02-18T13:30:45.379Z,101291.75
2019-02-18T13:33:15.799Z,101287.78
2019-02-18T13:35:46.196Z,101287.92
2019-02-18T13:38:17.571Z,101293.25
2019-02-18T13:40:47.966Z,101288.83
2019-02-18T13:43:18.394Z,101289.02
2019-02-18T13:45:48.870Z,101282.08
2019-02-18T13:48:19.269Z,101285.57
2019-02-18T13:50:49.948Z,101291.66
2019-02-18T13:53:20.463Z,101286.27
2019-02-18T13:55:52.114Z,101287.87
2019-02-18T13:58:22.597Z,101288.06
2019-02-18T14:00:53.124Z,101284.82
2019-02-18T14:03:23.556Z,101280.17
2019-02-18T14:05:54.074Z,101280.93
2019-02-18T14:08:24.491Z,101279.56
2019-02-18T14:10:54.962Z,101283.39
2019-02-18T14:13:26.352Z,101281.21
2019-02-18T14:15:56.811Z,101274.96
2019-02-18T14:18:27.220Z,101281.80
2019-02-18T14:20:57.642Z,101279.28
2019-02-18T14:23:28.092Z,101275.67
2019-02-18T14:25:58.624Z,101267.72
2019-02-18T14:28:29.901Z,101273.63
2019-02-18T14:31:00.633Z,101267.86
2019-02-18T14:33:31.027Z,101268.08
2019-02-18T14:36:01.423Z,101263.97
2019-02-18T14:38:31.834Z,101260.64
2019-02-18T14:41:02.246Z,101260.91
2019-02-18T14:43:32.656Z,101260.36
2019-02-18T14:46:03.051Z,101260.30
2019-02-18T14:48:33.444Z,101263.02
2019-02-18T14:51:03.846Z,101255.20
2019-02-18T14:53:34.350Z,101245.41
2019-02-18T14:56:07.419Z,101251.68
2019-02-18T14:58:37.832Z,101251.91
2019-02-18T15:01:08.446Z,101247.48
2019-02-18T15:03:39.003Z,101246.92
2019-02-18T15:06:09.409Z,101250.07
2019-02-18T15:08:39.897Z,101249.57
2019-02-18T15:11:10.669Z,101241.09
2019-02-18T15:13:41.165Z,101247.33
2019-02-18T15:16:11.583Z,101240.45
2019-02-18T15:18:42.004Z,101235.74
2019-02-18T15:21:12.544Z,101241.20
2019-02-18T15:23:42.978Z,101238.89
2019-02-18T15:26:13.387Z,101240.77
2019-02-18T15:28:43.790Z,101237.99
2019-02-18T15:31:14.191Z,101231.48
2019-02-18T15:33:44.594Z,101233.50
2019-02-18T15:36:15.071Z,101231.44
2019-02-18T15:38:45.857Z,101229.09
2019-02-18T15:41:16.300Z,101224.56
2019-02-18T15:43:46.681Z,101218.85
2019-02-18T15:46:17.095Z,101212.46
2019-02-18T15:48:47.502Z,101209.05
2019-02-18T15:51:17.902Z,101214.08
2019-02-18T15:53:48.313Z,101208.66
2019-02-18T15:56:18.990Z,101211.97
2019-02-18T15:58:49.392Z,101207.67
2019-02-18T16:01:19.793Z,101209.86
2019-02-18T16:03:50.199Z,101202.70
2019-02-18T16:06:20.594Z,101205.34
2019-02-18T16:08:51.051Z,101196.99
2019-02-18T16:11:21.459Z,101202.05
2019-02-18T16:13:51.923Z,101200.70
2019-02-18T16:16:22.315Z,101198.32
2019-02-18T16:18:53.435Z,101194.28
2019-02-18T16:21:23.836Z,101198.47
2019-02-18T16:23:54.305Z,101195.79
2019-02-18T16:26:24.708Z,101188.53
2019-02-18T16:28:55.271Z,101190.27
2019-02-18T16:31:25.771Z,101184.75
2019-02-18T16:33:56.219Z,101190.56
2019-02-18T16:36:26.628Z,101187.95
2019-02-18T16:38:57.459Z,101187.23
2019-02-18T16:41:27.886Z,101189.87
2019-02-18T16:43:58.291Z,101186.35
2019-02-18T16:46:29.238Z,101191.05
2019-02-18T16:48:59.945Z,101195.78
2019-02-18T16:51:31.878Z,101186.37
2019-02-18T16:54:02.270Z,101191.20
2019-02-18T16:56:32.677Z,101184.33
2019-02-18T16:59:03.549Z,101188.34
2019-02-18T17:01:33.943Z,101188.78
2019-02-18T17:04:04.358Z,101192.05
2019-02-18T17:06:34.768Z,101187.52
2019-02-18T17:09:08.535Z,101187.30
2019-02-18T17:11:39.128Z,101187.57
2019-02-18T17:14:09.540Z,101178.23
2019-02-18T17:16:39.946Z,101180.48
2019-02-18T17:19:10.466Z,101178.56
2019-02-18T17:21:40.948Z,101169.63
2019-02-18T17:24:11.357Z,101175.94
2019-02-18T17:26:41.970Z,101172.19
2019-02-18T17:29:12.376Z,101170.08
2019-02-18T17:31:42.793Z,101177.01
2019-02-18T17:34:13.214Z,101173.50
2019-02-18T17:36:43.632Z,101174.44
2019-02-18T17:39:14.032Z,101172.48
2019-02-18T17:41:44.517Z,101169.49
2019-02-18T17:44:20.184Z,101171.43
2019-02-18T17:46:47.223Z,101176.06
2019-02-18T17:49:17.624Z,101169.00
2019-02-18T17:51:48.032Z,101166.21
2019-02-18T17:54:18.529Z,101164.56
2019-02-18T17:56:48.925Z,101157.91
2019-02-18T17:59:19.356Z,101159.59
2019-02-18T18:01:49.766Z,101153.23
2019-02-18T18:04:20.171Z,101152.42
2019-02-18T18:06:51.047Z,101151.91
2019-02-18T18:09:21.443Z,101144.91
2019-02-18T18:11:51.874Z,101142.94
2019-02-18T18:14:22.337Z,101139.92
2019-02-18T18:16:52.734Z,101143.80
2019-02-18T18:19:23.137Z,101140.56
2019-02-18T18:21:53.657Z,101139.09
2019-02-18T18:24:24.056Z,101136.78
2019-02-18T18:26:54.465Z,101134.69
2019-02-18T18:29:24.862Z,101133.65
2019-02-18T18:31:55.338Z,101134.17
2019-02-18T18:34:26.134Z,101137.08
2019-02-18T18:36:56.605Z,101135.20
2019-02-18T18:39:27.140Z,101127.27
2019-02-18T18:41:57.671Z,101134.33
2019-02-18T18:44:28.196Z,101130.47
2019-02-18T18:46:58.685Z,101131.59
2019-02-18T18:49:29.153Z,101130.75
2019-02-18T18:51:59.736Z,101133.33
2019-02-18T18:54:30.223Z,101130.58
2019-02-18T18:57:00.625Z,101126.62
2019-02-18T18:59:31.041Z,101124.52
2019-02-18T19:02:01.456Z,101127.36
2019-02-18T19:04:31.874Z,101122.45
2019-02-18T19:07:02.353Z,101118.48
2019-02-18T19:09:32.766Z,101120.95
2019-02-18T19:12:03.178Z,101124.96
2019-02-18T19:14:33.763Z,101125.96
2019-02-18T19:17:04.175Z,101120.69
2019-02-18T19:19:34.709Z,101119.53
2019-02-18T19:22:05.236Z,101116.58
2019-02-18T19:24:35.660Z,101118.58
2019-02-18T19:27:06.495Z,101113.48
2019-02-18T19:29:36.924Z,101112.32
2019-02-18T19:32:07.334Z,101115.23
2019-02-18T19:34:37.888Z,101112.16
2019-02-18T19:37:08.339Z,101106.53
2019-02-18T19:39:40.279Z,101114.65
2019-02-18T19:42:10.694Z,101114.94
2019-02-18T19:44:41.102Z,101112.63
2019-02-18T19:47:11.508Z,101108.20
2019-02-18T19:49:41.907Z,101112.51
